Latest Weather Observations for Bombala AWS

IDN60801

Issued at 6:35 pm EDT Friday 31 October 2014 (issued every 30 minutes, with the page automatically refreshed every 10 minutes)

About weather observations | Map of weather stations | Latest weather observations for NSW | Other Formats
Station Details ID: 070328 Name: BOMBALA AWS Lat: -37.00 Lon: 149.23 Height: 760.5 m
Data from the previous 72 hours. | See also: Recent months at Bombala AWS
Date/Time
EDT
Temp
°C
App
Temp
°C
Dew
Point
Rel
Hum
%
Delta-T
°C
Wind Press
QNH
hPa
Press
MSL
hPa
Rain
since 9 am
mm
Dir
 
Spd
km/h
Gust
km/h
Spd
kts
Gust
kts
31/06:30pm 21.2 20.2 10.4 50 6.1 N 6 7 3 4 1007.9 1007.0 0.0
31/06:00pm 22.6 22.1 8.0 39 8.0 NW 0 4 0 2 1007.8 1006.9 0.0
31/05:30pm 22.2 21.2 10.4 47 6.7 NW 6 7 3 4 1008.1 1007.2 0.0
31/05:00pm 22.1 21.2 11.5 51 6.1 NNW 7 9 4 5 1008.4 1007.5 0.0
31/04:30pm 23.4 19.0 6.7 34 8.9 NW 19 24 10 13 1008.5 1007.6 0.0
31/04:00pm 25.0 18.0 6.7 31 9.9 NW 33 48 18 26 1008.6 1007.7 0.0
31/03:30pm 23.8 16.6 5.2 30 9.7 WNW 32 43 17 23 1008.9 1008.0 0.0
31/03:00pm 24.0 16.8 4.9 29 9.9 WNW 32 44 17 24 1009.0 1008.1 0.0
31/02:30pm 24.2 16.9 5.5 30 9.8 WNW 33 48 18 26 1009.5 1008.7 0.0
31/02:00pm 24.4 18.5 5.7 30 9.9 WNW 26 33 14 18 1009.9 1009.0 0.0
31/01:30pm 25.1 19.2 5.8 29 10.3 NW 26 37 14 20 1009.9 1009.0 0.0
31/01:00pm 24.8 18.5 5.6 29 10.2 NW 28 39 15 21 1010.3 1009.4 0.0
31/12:30pm 25.4 19.1 5.6 28 10.5 NW 28 46 15 25 1010.6 1009.7 0.0
31/12:00pm 24.6 19.7 8.5 36 9.0 NW 24 35 13 19 1011.2 1010.3 0.0
31/11:30am 23.9 20.6 10.9 44 7.5 NNW 19 28 10 15 1011.7 1010.8 0.0
31/11:00am 22.9 19.7 11.3 48 6.7 NW 19 26 10 14 1012.1 1011.3 0.0
31/10:30am 20.3 20.3 14.2 68 3.7 NNW 7 13 4 7 1012.6 1011.7 0.0
31/10:00am 16.9 16.0 12.6 76 2.5 N 9 13 5 7 1013.0 1012.2 0.0
31/09:30am 13.4 12.5 12.6 95 0.5 NNW 9 13 5 7 1013.4 1012.6 0.0
31/09:00am 10.7 9.2 10.7 100 0.0 N 9 13 5 7 1013.7 1012.9 0.2
31/08:30am 8.8 7.2 8.8 100 0.0 N 7 9 4 5 1013.8 1013.0 0.2
31/08:00am 7.4 5.5 7.4 100 0.0 N 7 9 4 5 1013.8 1013.0 0.2
31/07:30am 6.5 4.4 6.5 100 0.0 NNW 7 9 4 5 1013.6 1012.8 0.2
31/07:00am 6.0 3.9 6.0 100 0.0 NNW 6 7 3 4 1013.5 1012.7 0.2
31/06:30am 6.1 3.9 6.1 100 0.0 NNW 7 9 4 5 1013.3 1012.5 0.2
31/06:00am 6.1 3.9 6.1 100 0.0 NW 7 9 4 5 1013.2 1012.4 0.2
31/05:30am 6.5 4.9 6.5 100 0.0 NNW 4 7 2 4 1013.0 1012.2 0.2
31/05:00am 6.0 5.1 6.0 100 0.0 CALM 0 0 0 0 1012.9 1012.0 0.2
31/04:30am 6.0 5.1 6.0 100 0.0 CALM 0 4 0 2 1013.1 1012.3 0.2
31/04:00am 6.8 4.9 6.8 100 0.0 W 6 6 3 3 1013.2 1012.4 0.0
31/03:30am 7.7 7.2 7.7 100 0.0 CALM 0 0 0 0 1013.3 1012.5 0.0
31/03:00am 8.0 7.5 8.0 100 0.0 CALM 0 0 0 0 1013.5 1012.7 0.0
31/02:30am 7.8 7.3 7.8 100 0.0 CALM 0 0 0 0 1013.5 1012.7 0.0
31/02:00am 8.4 7.3 8.4 100 0.0 NW 4 4 2 2 1013.8 1013.0 0.0
31/01:30am 9.0 8.4 9.0 100 0.0 NE 2 4 1 2 1014.2 1013.4 0.0
31/01:00am 9.4 8.2 9.4 100 0.0 ENE 6 9 3 5 1014.4 1013.6 0.0
31/12:30am 9.3 8.0 9.3 100 0.0 ENE 6 7 3 4 1014.8 1014.0 0.0
31/12:00am 9.2 7.9 9.2 100 0.0 E 6 7 3 4 1015.0 1014.2 0.0
 
Date/Time
EDT
Temp
°C
App
Temp
°C
Dew
Point
Rel
Hum
%
Delta-T
°C
Wind Press
QNH
hPa
Press
MSL
hPa
Rain
since 9 am
mm
Dir
 
Spd
km/h
Gust
km/h
Spd
kts
Gust
kts
30/11:30pm 9.0 8.8 9.0 100 0.0 CALM 0 0 0 0 1015.1 1014.3 0.0
30/11:00pm 9.3 8.8 9.3 100 0.0 SE 2 4 1 2 1015.1 1014.3 0.0
30/10:30pm 9.1 7.8 9.1 100 0.0 SE 6 6 3 3 1015.4 1014.6 0.0
30/10:00pm 9.4 8.1 9.3 99 0.1 SE 6 9 3 5 1015.6 1014.8 0.0
30/09:30pm 9.8 8.4 9.7 99 0.1 SE 7 7 4 4 1015.7 1014.9 0.0
30/09:00pm 10.0 8.3 9.9 99 0.1 SE 9 13 5 7 1015.5 1014.7 0.0
30/08:30pm 10.9 9.1 10.7 99 0.1 SE 11 13 6 7 1015.4 1014.6 0.0
30/08:00pm 11.8 9.1 11.6 99 0.1 SE 17 22 9 12 1015.0 1014.2 0.0
30/07:30pm 12.6 9.6 12.0 96 0.3 SSE 19 24 10 13 1014.6 1013.8 0.0
30/07:00pm 14.3 10.5 12.5 89 1.0 SSE 24 28 13 15 1014.1 1013.3 0.0
30/06:30pm 16.0 11.9 12.7 81 1.9 SSE 26 33 14 18 1013.6 1012.8 0.0
30/06:00pm 17.6 13.8 13.5 77 2.4 SE 26 33 14 18 1013.0 1012.2 0.0
30/05:30pm 19.4 16.6 13.1 67 3.7 SSE 20 28 11 15 1012.6 1011.7 0.0
30/05:00pm 22.8 18.1 6.1 34 8.8 WNW 20 24 11 13 1012.1 1011.3 0.0
30/04:30pm 23.1 18.8 7.2 36 8.6 W 19 22 10 12 1012.1 1011.3 0.0
30/04:00pm 23.6 19.9 8.1 37 8.5 W 17 28 9 15 1012.1 1011.3 0.0
30/03:30pm 23.4 20.6 7.1 35 8.8 WNW 11 19 6 10 1012.3 1011.5 0.0
30/03:00pm 22.5 19.1 7.5 38 8.1 N 15 22 8 12 1012.7 1011.8 0.0
30/02:30pm 22.3 19.1 6.9 37 8.2 W 13 20 7 11 1013.1 1012.3 0.0
30/02:00pm 22.4 20.5 7.4 38 8.1 W 7 11 4 6 1013.3 1012.5 0.0
30/01:30pm 21.9 20.0 6.6 37 8.1 WSW 6 7 3 4 1013.4 1012.6 0.0
30/01:00pm 21.6 19.9 9.8 47 6.6 W 9 17 5 9 1013.6 1012.8 0.0
30/12:30pm 20.5 18.8 8.2 45 6.6 WNW 7 20 4 11 1014.1 1013.3 0.0
30/12:00pm 19.9 15.5 7.6 45 6.6 W 20 28 11 15 1014.4 1013.6 0.0
30/11:30am 19.4 15.2 8.1 48 6.1 W 20 30 11 16 1014.7 1013.9 0.0
30/11:00am 18.5 14.5 8.2 51 5.5 WSW 19 28 10 15 1015.1 1014.3 0.0
30/10:30am 17.2 14.5 9.1 59 4.4 WNW 13 19 7 10 1015.4 1014.6 0.0
30/10:00am 15.7 13.0 10.5 71 2.9 NNW 15 20 8 11 1015.1 1014.3 0.0
30/09:30am 14.3 12.3 11.6 84 1.5 NNW 13 19 7 10 1015.1 1014.3 0.0
30/09:00am 11.4 8.8 10.8 96 0.3 NNW 15 19 8 10 1015.2 1014.5 0.0
30/08:30am 9.4 6.4 9.4 100 0.0 NNW 15 17 8 9 1015.5 1014.7 0.0
30/08:00am 8.2 6.1 8.2 100 0.0 NNW 9 13 5 7 1015.5 1014.7 0.0
30/07:30am 7.5 5.6 7.5 100 0.0 NW 7 11 4 6 1015.5 1014.7 0.0
30/07:00am 7.6 4.6 7.6 100 0.0 NNW 13 15 7 8 1015.0 1014.2 0.0
30/06:30am 7.7 4.7 7.7 100 0.0 NNW 13 17 7 9 1015.1 1014.3 0.0
30/06:00am 8.1 5.2 8.1 100 0.0 NNW 13 15 7 8 1015.1 1014.3 0.0
30/05:30am 8.4 6.7 8.4 100 0.0 NW 7 11 4 6 1014.9 1014.1 0.0
30/05:00am 8.5 6.5 8.5 100 0.0 NW 9 13 5 7 1014.8 1014.0 0.0
30/04:30am 8.5 6.5 8.5 100 0.0 WNW 9 13 5 7 1014.8 1014.0 0.0
30/04:00am 8.9 7.3 8.9 100 0.0 WNW 7 11 4 6 1014.9 1014.1 0.0
30/03:30am 9.0 7.5 9.0 100 0.0 NW 7 11 4 6 1015.0 1014.2 0.0
30/03:00am 9.1 7.6 9.1 100 0.0 NW 7 11 4 6 1015.4 1014.6 0.0
30/02:30am 9.3 8.0 9.3 100 0.0 WNW 6 7 3 4 1015.5 1014.7 0.0
30/02:00am 9.3 9.1 9.2 99 0.1 CALM 0 7 0 4 1015.6 1014.8 0.0
30/01:30am 9.3 9.1 9.2 99 0.1 CALM 0 0 0 0 1015.9 1015.1 0.0
30/01:00am 9.2 9.0 9.1 99 0.1 CALM 0 0 0 0 1016.5 1015.8 0.0
30/12:30am 9.4 9.3 9.3 99 0.1 CALM 0 0 0 0 1016.8 1016.0 0.0
30/12:00am 9.2 8.6 9.1 99 0.1 NE 2 6 1 3 1016.8 1016.0 0.0
 
Date/Time
EDT
Temp
°C
App
Temp
°C
Dew
Point
Rel
Hum
%
Delta-T
°C
Wind Press
QNH
hPa
Press
MSL
hPa
Rain
since 9 am
mm
Dir
 
Spd
km/h
Gust
km/h
Spd
kts
Gust
kts
29/11:30pm 9.2 7.9 9.1 99 0.1 NE 6 7 3 4 1016.8 1016.0 0.0
29/11:00pm 9.2 8.3 9.1 99 0.1 SE 4 7 2 4 1016.9 1016.1 0.0
29/10:30pm 9.2 8.3 9.1 99 0.1 SE 4 6 2 3 1017.2 1016.4 0.0
29/10:00pm 8.6 7.5 8.5 99 0.1 ESE 4 4 2 2 1017.2 1016.4 0.0
29/09:30pm 8.7 7.2 8.6 99 0.1 E 6 7 3 4 1017.3 1016.5 0.0
29/09:00pm 8.7 7.2 8.6 99 0.1 E 6 7 3 4 1017.1 1016.3 0.0
29/08:30pm 9.1 7.5 8.8 98 0.2 ENE 7 11 4 6 1016.5 1015.8 0.0
29/08:00pm 9.5 7.9 8.7 95 0.4 ENE 7 11 4 6 1016.2 1015.4 0.0
29/07:30pm 10.8 8.5 8.9 88 1.0 ENE 11 17 6 9 1015.8 1015.0 0.0
29/07:00pm 12.3 9.9 8.8 79 1.8 ENE 11 19 6 10 1015.4 1014.6 0.0
29/06:30pm 14.4 12.3 9.8 74 2.5 ENE 11 15 6 8 1015.0 1014.2 0.0
29/06:00pm 16.0 13.2 9.9 67 3.3 E 15 20 8 11 1014.7 1013.9 0.0
29/05:30pm 16.7 13.0 9.4 62 3.9 E 19 24 10 13 1014.6 1013.8 0.0
29/05:00pm 19.5 18.0 6.6 43 6.7 NNE 4 6 2 3 1014.3 1013.5 0.0
29/04:30pm 19.0 17.1 6.5 44 6.5 SSE 6 7 3 4 1014.5 1013.7 0.0
29/04:00pm 19.0 16.7 5.8 42 6.8 N 7 13 4 7 1014.6 1013.8 0.0
29/03:30pm 19.1 16.8 5.9 42 6.8 N 7 11 4 6 1014.8 1014.0 0.0
29/03:00pm 19.6 18.0 6.4 42 6.9 WNW 4 7 2 4 1015.4 1014.6 0.0
29/02:30pm 18.4 15.7 7.5 49 5.7 SSW 11 19 6 10 1015.7 1014.9 0.0
29/02:00pm 18.1 15.6 6.6 47 5.9 WSW 9 19 5 10 1016.1 1015.3 0.0
29/01:30pm 17.6 14.8 7.1 50 5.5 WSW 11 22 6 12 1016.3 1015.6 0.0
29/01:00pm 16.8 13.0 5.7 48 5.6 W 15 24 8 13 1016.4 1015.7 0.0
29/12:30pm 16.2 12.7 5.5 49 5.3 WSW 13 20 7 11 1016.8 1016.0 0.0
29/12:00pm 15.2 11.3 5.4 52 4.8 WSW 15 24 8 13 1017.2 1016.4 0.0
29/11:30am 14.4 9.6 5.5 55 4.4 W 20 28 11 15 1017.4 1016.6 0.0
29/11:00am 13.4 8.9 6.0 61 3.7 W 19 28 10 15 1017.7 1017.0 0.0
29/10:30am 12.6 8.7 7.1 69 2.8 WSW 17 24 9 13 1017.8 1017.1 0.0
29/10:00am 11.4 6.9 5.9 69 2.7 W 19 28 10 15 1017.8 1017.1 0.0
29/09:30am 10.6 6.0 5.6 71 2.4 WSW 19 24 10 13 1017.7 1017.0 0.0
29/09:00am 9.8 5.4 4.8 71 2.3 W 17 24 9 13 1017.7 1017.0 0.0
29/08:30am 8.8 3.4 4.6 75 1.9 W 22 32 12 17 1017.7 1017.0 0.0
29/08:00am 7.9 2.4 4.1 77 1.7 W 22 30 12 16 1017.5 1016.8 0.0
29/07:30am 7.5 2.6 4.1 79 1.5 W 19 26 10 14 1017.3 1016.5 0.0
29/07:00am 6.8 3.0 3.9 82 1.3 SW 13 22 7 12 1017.1 1016.3 0.0
29/06:30am 6.5 1.8 3.3 80 1.4 SW 17 24 9 13 1016.5 1015.8 0.0
29/06:00am 6.7 1.2 4.0 83 1.2 WSW 22 33 12 18 1016.0 1015.2 0.0
29/05:30am 6.7 1.8 5.2 90 0.7 WSW 20 28 11 15 1015.5 1014.7 0.0
29/05:00am 7.0 2.8 5.6 91 0.7 SW 17 30 9 16 1015.4 1014.6 0.0
29/04:30am 7.0 3.2 5.8 92 0.6 SW 15 20 8 11 1014.9 1014.1 0.0
29/04:00am 7.1 2.6 5.9 92 0.6 SW 19 28 10 15 1014.6 1013.8 0.0
29/03:30am 6.8 2.1 6.1 95 0.3 SW 20 26 11 14 1014.5 1013.7 0.0
29/03:00am 6.7 1.6 6.1 96 0.3 SW 22 30 12 16 1014.5 1013.7 0.0
29/02:30am 7.1 2.2 6.7 97 0.2 SW 22 32 12 17 1014.6 1013.8 0.0
29/02:00am 7.2 1.9 6.8 97 0.2 SW 24 33 13 18 1014.4 1013.6 0.0
29/01:30am 7.5 2.2 6.9 96 0.3 SW 24 32 13 17 1014.3 1013.5 0.0
29/01:00am 7.4 3.1 6.8 96 0.3 SW 19 24 10 13 1014.3 1013.5 0.0
29/12:30am 8.1 2.8 6.9 92 0.6 SW 24 32 13 17 1014.1 1013.3 0.0
29/12:00am 8.5 4.5 6.8 89 0.8 SW 17 24 9 13 1014.0 1013.1 0.0
 
Date/Time
EDT
Temp
°C
App
Temp
°C
Dew
Point
Rel
Hum
%
Delta-T
°C
Wind Press
QNH
hPa
Press
MSL
hPa
Rain
since 9 am
mm
Dir
 
Spd
km/h
Gust
km/h
Spd
kts
Gust
kts
28/11:30pm 8.7 4.7 6.5 86 1.1 SW 17 20 9 11 1013.6 1012.8 0.0
28/11:00pm 9.9 5.8 6.3 78 1.7 WSW 17 22 9 12 1013.2 1012.4 0.0
28/10:30pm 9.6 5.4 5.6 76 1.9 W 17 22 9 12 1012.7 1011.8 0.0
28/10:00pm 10.6 5.8 5.8 72 2.3 W 20 28 11 15 1012.7 1011.8 0.0
28/09:30pm 10.6 5.8 5.4 70 2.5 W 20 30 11 16 1012.7 1011.8 0.0
28/09:00pm 11.1 5.8 5.0 66 2.9 W 22 32 12 17 1012.4 1011.6 0.0
28/08:30pm 11.6 4.8 5.0 64 3.2 W 30 44 16 24 1011.8 1011.0 0.0
28/08:00pm 11.9 3.7 4.9 62 3.4 W 37 46 20 25 1011.4 1010.5 0.0
28/07:30pm 12.0 4.8 5.0 62 3.4 W 32 46 17 25 1011.2 1010.3 0.0
28/07:00pm 12.4 5.1 4.6 59 3.7 W 32 41 17 22 1010.8 1010.0 0.0

Other Formats:

Comma delimited format used in spreadsheet applications
http://www.bom.gov.au/fwo/IDN60801/IDN60801.94929.axf

JavaScript Object Notation format (JSON) in row-major order
http://www.bom.gov.au/fwo/IDN60801/IDN60801.94929.json